Share

King Salmon, AK

Port Heiden (PAPH) Elev 95 ft | 56.96 °N, 158.63 °W | Change Station

Current weather conditions updated 19 minutes ago

Overcast
Overcast
36 °F
Feels Like 29 °F
N
9
Wind Variable Wind from SW
Sunrise 7:12 AM
Sunset 9:55 PM
Moon Waning Gibbous

Tomorrow is forecast to be Warmer than today.

Pressure 29.86 in
Visibility 10.0 miles
Clouds Overcast 400 ft
Windchill 29 °F
Dew Point 28 °F
Humidity 75%
Rainfall 0.05 in
Snow Depth Not available.
UV 0 out of 16
Pollen Not available.
Air Quality Not available.
Flu Activity Sporadic
METAR PAPH 210716Z AUTO 23008KT 10SM OVC004 02/M02 A2986 RMK AO1

More Conditions Fewer Conditions

Pressure 29.86 in
Visibility 10.0 miles
Clouds Overcast 400 ft
Windchill 29 °F
Dew Point 28 °F
Humidity 75%
Rainfall 0.05 in
Snow Depth Not available.
UV 0 out of 16
Pollen Not available.
Air Quality Not available.
Flu Activity Sporadic
METAR PAPH 210716Z AUTO 23008KT 10SM OVC004 02/M02 A2986 RMK AO1

More Conditions Fewer Conditions

10-Day Weather Forecast

Almanac

Astronomy

Apr. 20, 2014 Rise Set
Actual Time 7:12 AM AKDT 9:55 PM AKDT
Civil Twilight 6:30 AM AKDT 10:38 PM AKDT
Nautical Twilight 5:34 AM AKDT 11:35 PM AKDT
Astronomical Twilight 4:19 AM AKDT 12:51 AM AKDT
Moon 3:08 AM AKDT (4/20) 11:22 AM AKDT (4/20)
Length of Visible Light 16h 08m
Length of Day
14h 42m
Tomorrow will be 4m 40s longer.
Waning Gibbous, 62% of the Moon is Illuminated
Apr 21
Waning Gibbous
Apr 22
Last Quarter
Apr 29
New
May 6
First Quarter
May 14
Full

Community

  • Snowy Robin
    Snowy Robin
  • Sun Pillar and Geese
    Sun Pillar and Geese
  • Showers on the Way
    Showers on the Way
  • Easter Morning Fog
    Easter Morning Fog
  • Easter Dance
    Easter Dance

WunderPhotos

Upload Photos

1,703,572 photos uploaded!

WunderBlogs® & News

Nearby

Snow Depth

Station Depth Elevation
Port Graham 6 in 300 ft
Mcneil Canyon 7 in 1320 ft
MF Bradley River 20 in 2300 ft
Nuka Glacier 32 in 1250 ft
Cooper Lake 20 in 1200 ft

Coastal Water Temperatures

Place Temperature
No Stations Reporting

Earthquake Activity

City Distance Mag. Time & Date
No recent earthquake activity has been reported nearby.
Minimum magnitude displayed is 2.5.

Nearby Weather Stations

There are no personal weather stations in this area.

What do you think?

We're not finished. Please let us know what you like, what you don't like, and what you are still missing.